Back to Top

Language: 

My Weather Underground Personal Weather Station Historical Data with Graphs...

Delerius Weather Station Historical Data
Daily Summary for December 15, 2017 Units:  English    Metric   Both
« Previous Day
Next Day »
Daily Weekly Monthly Yearly Custom
  High: Low: Average:
Temperature: 41.9 °F 34.2 °F 36.4 °F
Dew Point: 37.7 °F 30.4 °F 33.5 °F
Humidity: 96 % 84 % 89 %
Wind Speed: 14.0 mph 1.0 mph 6.2 mph
Wind Gust: 23.0 mph - -
Wind:- - NW
Pressure: 29.88 in 29.13 in -
Precipitation: 0.02 in    
Historical Graphs
 
 
Tabular Data for December 15, 2017
Time Temperature Dew Point Pressure Wind Wind Speed Wind Gust Humidity Rainfall Rate (Hourly) solar Conditions
00:03 35.1 °F 33.8 °F 29.13 in WNW 7.0 mph 11.0 mph 95 % 0.02 in 0 W/m2
00:08 35.2 °F 34.0 °F 29.13 in NW 8.0 mph 12.0 mph 95 % 0.02 in 0 W/m2
00:13 35.4 °F 34.1 °F 29.13 in NW 7.0 mph 14.0 mph 95 % 0.01 in 0 W/m2
00:18 35.6 °F 34.3 °F 29.13 in NW 7.0 mph 11.0 mph 95 % 0.01 in 0 W/m2
00:22 35.8 °F 34.5 °F 29.13 in NW 7.0 mph 12.0 mph 95 % 0.01 in 0 W/m2
00:27 35.8 °F 34.5 °F 29.14 in NNW 4.0 mph 7.0 mph 95 % 0.01 in 0 W/m2
00:28 35.8 °F 34.5 °F 29.14 in NNW 3.0 mph 7.0 mph 95 % 0.01 in 0 W/m2
00:33 35.8 °F 34.5 °F 29.14 in NNW 5.0 mph 9.0 mph 95 % 0.02 in 0 W/m2
00:38 35.6 °F 34.3 °F 29.14 in North 3.0 mph 6.0 mph 95 % 0.02 in 0 W/m2
00:43 35.6 °F 34.3 °F 29.14 in NW 3.0 mph 6.0 mph 95 % 0.02 in 0 W/m2
00:48 35.4 °F 34.1 °F 29.14 in NW 2.0 mph 7.0 mph 95 % 0.01 in 0 W/m2
00:53 35.4 °F 34.1 °F 29.15 in NNW 2.0 mph 6.0 mph 95 % 0.01 in 0 W/m2
00:58 35.4 °F 34.1 °F 29.15 in NW 4.0 mph 8.0 mph 95 % 0.01 in 0 W/m2
01:03 35.4 °F 34.1 °F 29.15 in NW 4.0 mph 9.0 mph 95 % 0.01 in 0 W/m2
01:08 35.2 °F 34.0 °F 29.15 in NW 3.0 mph 6.0 mph 95 % 0.01 in 0 W/m2
01:13 35.2 °F 34.0 °F 29.16 in WNW 2.0 mph 5.0 mph 95 % 0.01 in 0 W/m2
01:18 35.2 °F 34.0 °F 29.16 in WNW 2.0 mph 5.0 mph 95 % 0.01 in 0 W/m2
01:23 35.1 °F 33.8 °F 29.16 in WNW 3.0 mph 5.0 mph 95 % 0.01 in 0 W/m2
01:26 35.1 °F 33.8 °F 29.16 in WNW 3.0 mph 7.0 mph 95 % 0.01 in 0 W/m2
01:31 34.9 °F 33.6 °F 29.16 in NW 2.0 mph 6.0 mph 95 % 0.00 in 0 W/m2
01:36 34.9 °F 33.6 °F 29.16 in NW 4.0 mph 9.0 mph 95 % 0.00 in 0 W/m2
01:41 34.7 °F 33.4 °F 29.16 in WNW 4.0 mph 6.0 mph 95 % 0.00 in 0 W/m2
01:42 34.7 °F 33.4 °F 29.16 in WNW 4.0 mph 6.0 mph 95 % 0.00 in 0 W/m2
01:47 34.7 °F 33.4 °F 29.17 in NW 4.0 mph 8.0 mph 95 % 0.00 in 0 W/m2
01:49 34.5 °F 33.2 °F 29.17 in NW 4.0 mph 6.0 mph 95 % 0.00 in 0 W/m2
01:54 34.5 °F 33.2 °F 29.17 in NW 3.0 mph 8.0 mph 95 % 0.00 in 0 W/m2
01:59 34.5 °F 33.2 °F 29.17 in NW 2.0 mph 5.0 mph 95 % 0.00 in 0 W/m2
02:04 34.5 °F 33.2 °F 29.18 in NW 2.0 mph 5.0 mph 95 % 0.00 in 0 W/m2
02:05 34.5 °F 33.2 °F 29.18 in NW 2.0 mph 5.0 mph 95 % 0.00 in 0 W/m2
02:10 34.3 °F 33.1 °F 29.18 in WNW 1.0 mph 5.0 mph 95 % 0.00 in 0 W/m2
02:15 34.3 °F 33.1 °F 29.18 in WNW 2.0 mph 4.0 mph 95 % 0.00 in 0 W/m2
02:20 34.3 °F 33.1 °F 29.19 in WNW 3.0 mph 6.0 mph 95 % 0.00 in 0 W/m2
02:25 34.3 °F 33.1 °F 29.19 in NW 2.0 mph 5.0 mph 95 % 0.00 in 0 W/m2
02:30 34.3 °F 33.1 °F 29.19 in WNW 3.0 mph 5.0 mph 95 % 0.00 in 0 W/m2
02:36 34.3 °F 33.1 °F 29.20 in WNW 2.0 mph 5.0 mph 95 % 0.00 in 0 W/m2
02:41 34.3 °F 33.1 °F 29.20 in WNW 4.0 mph 9.0 mph 95 % 0.00 in 0 W/m2
02:46 34.5 °F 33.2 °F 29.20 in NW 3.0 mph 6.0 mph 95 % 0.00 in 0 W/m2
02:51 34.7 °F 33.4 °F 29.21 in NW 4.0 mph 7.0 mph 95 % 0.00 in 0 W/m2
02:56 34.9 °F 33.6 °F 29.22 in NW 5.0 mph 8.0 mph 95 % 0.00 in 0 W/m2
03:01 34.9 °F 33.9 °F 29.22 in WNW 5.0 mph 8.0 mph 96 % 0.00 in 0 W/m2
03:06 35.1 °F 34.0 °F 29.22 in WNW 5.0 mph 9.0 mph 96 % 0.00 in 0 W/m2
03:13 35.1 °F 33.8 °F 29.22 in WNW 5.0 mph 9.0 mph 95 % 0.00 in 0 W/m2
03:18 34.9 °F 33.6 °F 29.23 in WNW 5.0 mph 8.0 mph 95 % 0.00 in 0 W/m2
03:23 34.9 °F 33.6 °F 29.23 in WNW 6.0 mph 8.0 mph 95 % 0.00 in 0 W/m2
03:28 34.9 °F 33.6 °F 29.23 in WNW 4.0 mph 8.0 mph 95 % 0.00 in 0 W/m2
03:33 34.9 °F 33.6 °F 29.24 in WNW 6.0 mph 9.0 mph 95 % 0.00 in 0 W/m2
03:38 34.7 °F 33.4 °F 29.24 in WNW 4.0 mph 8.0 mph 95 % 0.00 in 0 W/m2
03:43 34.7 °F 33.4 °F 29.25 in WNW 5.0 mph 7.0 mph 95 % 0.00 in 0 W/m2
03:48 34.5 °F 33.2 °F 29.25 in WNW 4.0 mph 7.0 mph 95 % 0.00 in 0 W/m2
03:53 34.5 °F 33.2 °F 29.25 in WNW 3.0 mph 6.0 mph 95 % 0.01 in 0 W/m2
03:58 34.3 °F 33.1 °F 29.25 in NW 5.0 mph 9.0 mph 95 % 0.01 in 0 W/m2
04:03 34.5 °F 33.2 °F 29.26 in NNW 4.0 mph 9.0 mph 95 % 0.01 in 0 W/m2
04:08 34.7 °F 33.4 °F 29.26 in NW 5.0 mph 8.0 mph 95 % 0.01 in 0 W/m2
04:13 34.9 °F 33.6 °F 29.26 in NNW 4.0 mph 7.0 mph 95 % 0.01 in 0 W/m2
04:18 34.9 °F 33.6 °F 29.26 in NW 5.0 mph 10.0 mph 95 % 0.01 in 0 W/m2
04:23 34.9 °F 33.6 °F 29.27 in WNW 5.0 mph 9.0 mph 95 % 0.01 in 0 W/m2
04:28 34.9 °F 33.6 °F 29.28 in NW 4.0 mph 8.0 mph 95 % 0.01 in 0 W/m2
04:33 34.9 °F 33.6 °F 29.28 in WNW 6.0 mph 11.0 mph 95 % 0.01 in 0 W/m2
04:39 34.9 °F 33.6 °F 29.28 in WNW 4.0 mph 7.0 mph 95 % 0.01 in 0 W/m2
04:44 34.9 °F 33.3 °F 29.29 in NW 5.0 mph 9.0 mph 94 % 0.01 in 0 W/m2
04:49 34.9 °F 33.3 °F 29.29 in NW 8.0 mph 11.0 mph 94 % 0.01 in 0 W/m2
04:54 35.1 °F 33.8 °F 29.30 in NW 6.0 mph 10.0 mph 95 % 0.00 in 0 W/m2
04:59 35.2 °F 34.0 °F 29.30 in NW 6.0 mph 15.0 mph 95 % 0.00 in 0 W/m2
05:04 35.2 °F 33.7 °F 29.30 in NW 5.0 mph 12.0 mph 94 % 0.00 in 0 W/m2
05:06 35.2 °F 33.7 °F 29.30 in NW 9.0 mph 14.0 mph 94 % 0.00 in 0 W/m2
05:12 35.4 °F 33.9 °F 29.30 in NW 5.0 mph 9.0 mph 94 % 0.00 in 0 W/m2
05:17 35.4 °F 33.9 °F 29.30 in NW 6.0 mph 12.0 mph 94 % 0.00 in 0 W/m2
05:22 35.8 °F 34.2 °F 29.31 in NW 5.0 mph 9.0 mph 94 % 0.00 in 0 W/m2
05:27 35.8 °F 34.2 °F 29.31 in NW 7.0 mph 11.0 mph 94 % 0.00 in 0 W/m2
05:31 35.8 °F 34.0 °F 29.32 in NW 7.0 mph 14.0 mph 93 % 0.00 in 0 W/m2
05:34 35.8 °F 34.0 °F 29.32 in NW 5.0 mph 8.0 mph 93 % 0.00 in 0 W/m2
05:39 35.8 °F 34.0 °F 29.33 in NW 7.0 mph 13.0 mph 93 % 0.00 in 0 W/m2
05:44 35.8 °F 34.0 °F 29.33 in NW 8.0 mph 12.0 mph 93 % 0.00 in 0 W/m2
05:49 35.8 °F 34.0 °F 29.33 in NW 6.0 mph 10.0 mph 93 % 0.00 in 0 W/m2
05:55 35.8 °F 34.0 °F 29.34 in NW 5.0 mph 8.0 mph 93 % 0.00 in 0 W/m2
06:00 36.0 °F 34.1 °F 29.34 in NW 7.0 mph 13.0 mph 93 % 0.00 in 0 W/m2
06:05 36.0 °F 34.1 °F 29.34 in NW 5.0 mph 9.0 mph 93 % 0.00 in 0 W/m2
06:10 36.0 °F 34.1 °F 29.35 in NW 6.0 mph 10.0 mph 93 % 0.00 in 0 W/m2
06:15 36.0 °F 34.1 °F 29.35 in NW 7.0 mph 12.0 mph 93 % 0.00 in 0 W/m2
06:20 36.0 °F 34.1 °F 29.36 in NW 6.0 mph 12.0 mph 93 % 0.00 in 0 W/m2
06:25 36.1 °F 34.3 °F 29.36 in NW 7.0 mph 12.0 mph 93 % 0.00 in 0 W/m2
06:30 36.3 °F 34.5 °F 29.37 in WNW 4.0 mph 6.0 mph 93 % 0.00 in 0 W/m2
06:35 36.3 °F 34.5 °F 29.37 in WNW 5.0 mph 9.0 mph 93 % 0.00 in 0 W/m2
06:40 36.3 °F 34.2 °F 29.38 in WNW 4.0 mph 7.0 mph 92 % 0.00 in 0 W/m2
06:45 36.1 °F 34.0 °F 29.38 in West 4.0 mph 6.0 mph 92 % 0.00 in 0 W/m2
06:50 36.1 °F 34.0 °F 29.38 in WNW 5.0 mph 7.0 mph 92 % 0.00 in 0 W/m2
06:55 36.0 °F 33.9 °F 29.38 in WNW 7.0 mph 11.0 mph 92 % 0.00 in 0 W/m2
07:00 36.0 °F 33.9 °F 29.38 in NW 6.0 mph 10.0 mph 92 % 0.00 in 0 W/m2
07:05 35.8 °F 33.7 °F 29.39 in NW 7.0 mph 11.0 mph 92 % 0.00 in 0 W/m2
07:10 35.8 °F 33.7 °F 29.39 in NW 8.0 mph 15.0 mph 92 % 0.00 in 0 W/m2
07:15 36.0 °F 33.9 °F 29.39 in NW 6.0 mph 10.0 mph 92 % 0.00 in 0 W/m2
07:20 36.0 °F 33.9 °F 29.39 in WNW 6.0 mph 10.0 mph 92 % 0.00 in 0 W/m2
07:25 35.8 °F 33.7 °F 29.40 in NW 8.0 mph 13.0 mph 92 % 0.00 in 0 W/m2
07:30 36.0 °F 33.6 °F 29.40 in NW 7.0 mph 12.0 mph 91 % 0.00 in 0 W/m2
07:35 36.0 °F 33.6 °F 29.41 in NW 6.0 mph 14.0 mph 91 % 0.00 in 0 W/m2
07:40 36.0 °F 33.6 °F 29.41 in NW 6.0 mph 12.0 mph 91 % 0.00 in 0 W/m2
07:45 36.0 °F 33.6 °F 29.42 in NW 7.0 mph 12.0 mph 91 % 0.00 in 0 W/m2
07:51 36.0 °F 33.6 °F 29.42 in NW 9.0 mph 16.0 mph 91 % 0.00 in 0 W/m2
07:56 36.0 °F 33.6 °F 29.42 in NW 7.0 mph 13.0 mph 91 % 0.00 in 0 W/m2
08:01 36.0 °F 33.6 °F 29.42 in NW 8.0 mph 12.0 mph 91 % 0.00 in 0 W/m2
08:06 36.0 °F 33.3 °F 29.43 in NW 10.0 mph 15.0 mph 90 % 0.00 in 0 W/m2
08:11 36.1 °F 33.5 °F 29.43 in NW 10.0 mph 14.0 mph 90 % 0.00 in 0 W/m2
08:16 36.1 °F 33.5 °F 29.44 in NW 9.0 mph 18.0 mph 90 % 0.00 in 5 W/m2
08:21 36.3 °F 33.7 °F 29.44 in NW 10.0 mph 16.0 mph 90 % 0.00 in 7 W/m2
08:26 36.5 °F 33.8 °F 29.44 in NW 9.0 mph 18.0 mph 90 % 0.00 in 12 W/m2
08:31 36.7 °F 34.0 °F 29.44 in NW 10.0 mph 16.0 mph 90 % 0.01 in 32 W/m2
08:36 36.9 °F 33.9 °F 29.46 in NW 12.0 mph 16.0 mph 89 % 0.01 in 26 W/m2
08:41 36.9 °F 33.9 °F 29.46 in NW 10.0 mph 16.0 mph 89 % 0.01 in 33 W/m2
08:46 36.9 °F 33.9 °F 29.46 in NW 7.0 mph 15.0 mph 89 % 0.01 in 37 W/m2
08:51 36.7 °F 34.0 °F 29.46 in NW 6.0 mph 11.0 mph 90 % 0.01 in 32 W/m2
08:56 36.7 °F 34.0 °F 29.46 in NW 7.0 mph 12.0 mph 90 % 0.01 in 26 W/m2
09:01 36.7 °F 34.0 °F 29.47 in NW 6.0 mph 12.0 mph 90 % 0.01 in 21 W/m2
09:06 36.3 °F 33.7 °F 29.47 in NW 6.0 mph 12.0 mph 90 % 0.01 in 19 W/m2
09:11 36.3 °F 33.7 °F 29.47 in WNW 7.0 mph 11.0 mph 90 % 0.01 in 21 W/m2
09:16 36.3 °F 33.7 °F 29.47 in WNW 6.0 mph 9.0 mph 90 % 0.01 in 25 W/m2
09:21 36.3 °F 33.7 °F 29.47 in WNW 9.0 mph 14.0 mph 90 % 0.01 in 51 W/m2
09:26 36.3 °F 33.7 °F 29.48 in WNW 8.0 mph 11.0 mph 90 % 0.01 in 160 W/m2
09:31 36.3 °F 33.7 °F 29.48 in NW 7.0 mph 11.0 mph 90 % 0.00 in 156 W/m2
09:36 36.5 °F 33.8 °F 29.49 in WNW 6.0 mph 12.0 mph 90 % 0.00 in 51 W/m2
09:41 36.7 °F 34.0 °F 29.50 in NW 7.0 mph 12.0 mph 90 % 0.00 in 135 W/m2
09:46 36.9 °F 34.2 °F 29.50 in NW 6.0 mph 11.0 mph 90 % 0.00 in 155 W/m2
09:51 37.0 °F 34.4 °F 29.51 in WNW 5.0 mph 9.0 mph 90 % 0.00 in 113 W/m2
09:56 37.4 °F 34.7 °F 29.51 in NW 8.0 mph 14.0 mph 90 % 0.00 in 97 W/m2
10:01 37.6 °F 34.9 °F 29.52 in NW 6.0 mph 10.0 mph 90 % 0.00 in 216 W/m2
10:06 37.8 °F 35.1 °F 29.52 in NW 8.0 mph 15.0 mph 90 % 0.00 in 218 W/m2
10:11 37.9 °F 35.0 °F 29.52 in NW 7.0 mph 13.0 mph 89 % 0.00 in 62 W/m2
10:16 38.1 °F 35.2 °F 29.52 in WNW 9.0 mph 13.0 mph 89 % 0.00 in 230 W/m2
10:21 38.3 °F 35.3 °F 29.52 in NW 8.0 mph 14.0 mph 89 % 0.00 in 223 W/m2
10:26 38.5 °F 35.5 °F 29.52 in NW 7.0 mph 12.0 mph 89 % 0.00 in 223 W/m2
10:32 38.7 °F 35.7 °F 29.53 in NW 8.0 mph 12.0 mph 89 % 0.00 in 243 W/m2
10:37 38.8 °F 35.6 °F 29.53 in NW 8.0 mph 14.0 mph 88 % 0.00 in 146 W/m2
10:42 39.0 °F 35.8 °F 29.54 in NW 8.0 mph 14.0 mph 88 % 0.00 in 253 W/m2
10:47 39.0 °F 35.8 °F 29.54 in WNW 10.0 mph 16.0 mph 88 % 0.00 in 255 W/m2
10:52 39.0 °F 35.8 °F 29.54 in WNW 7.0 mph 10.0 mph 88 % 0.00 in 250 W/m2
10:57 39.4 °F 35.8 °F 29.54 in WNW 9.0 mph 15.0 mph 87 % 0.00 in 264 W/m2
11:02 39.6 °F 36.0 °F 29.54 in WNW 8.0 mph 14.0 mph 87 % 0.00 in 279 W/m2
11:07 39.9 °F 36.4 °F 29.54 in WNW 8.0 mph 15.0 mph 87 % 0.00 in 272 W/m2
11:12 39.9 °F 36.1 °F 29.55 in NW 11.0 mph 19.0 mph 86 % 0.00 in 262 W/m2
11:17 40.3 °F 36.1 °F 29.55 in NW 10.0 mph 16.0 mph 85 % 0.00 in 258 W/m2
11:23 40.5 °F 36.3 °F 29.55 in WNW 8.0 mph 21.0 mph 85 % 0.00 in 262 W/m2
11:28 40.5 °F 36.3 °F 29.55 in NW 8.0 mph 13.0 mph 85 % 0.00 in 262 W/m2
11:33 40.6 °F 36.5 °F 29.55 in WNW 9.0 mph 13.0 mph 85 % 0.00 in 267 W/m2
11:38 40.8 °F 36.7 °F 29.55 in WNW 9.0 mph 14.0 mph 85 % 0.00 in 260 W/m2
11:43 41.2 °F 37.0 °F 29.56 in NW 8.0 mph 12.0 mph 85 % 0.00 in 258 W/m2
11:48 41.4 °F 36.9 °F 29.56 in WNW 10.0 mph 19.0 mph 84 % 0.00 in 265 W/m2
11:53 41.4 °F 36.9 °F 29.56 in WNW 9.0 mph 16.0 mph 84 % 0.00 in 265 W/m2
11:58 41.5 °F 37.1 °F 29.57 in NW 9.0 mph 14.0 mph 84 % 0.00 in 357 W/m2
12:03 41.7 °F 37.2 °F 29.57 in NW 9.0 mph 14.0 mph 84 % 0.00 in 345 W/m2
12:08 41.9 °F 37.4 °F 29.57 in WNW 10.0 mph 15.0 mph 84 % 0.00 in 153 W/m2
12:13 41.9 °F 37.4 °F 29.58 in NW 7.0 mph 11.0 mph 84 % 0.00 in 123 W/m2
12:18 41.7 °F 37.2 °F 29.58 in NW 8.0 mph 14.0 mph 84 % 0.00 in 91 W/m2
12:23 41.5 °F 37.1 °F 29.58 in NW 8.0 mph 14.0 mph 84 % 0.00 in 104 W/m2
12:28 41.5 °F 37.4 °F 29.58 in NW 9.0 mph 15.0 mph 85 % 0.00 in 98 W/m2
12:33 41.4 °F 37.2 °F 29.58 in NW 6.0 mph 12.0 mph 85 % 0.00 in 60 W/m2
12:38 41.4 °F 37.5 °F 29.58 in North 12.0 mph 23.0 mph 86 % 0.00 in 100 W/m2
12:43 41.4 °F 37.5 °F 29.58 in NNW 12.0 mph 19.0 mph 86 % 0.00 in 63 W/m2
12:48 41.4 °F 37.5 °F 29.59 in NNW 8.0 mph 21.0 mph 86 % 0.00 in 65 W/m2
12:53 41.5 °F 37.7 °F 29.59 in NNW 8.0 mph 13.0 mph 86 % 0.00 in 236 W/m2
12:58 41.5 °F 37.7 °F 29.60 in NNW 10.0 mph 20.0 mph 86 % 0.00 in 123 W/m2
15:20 41.2 °F 36.7 °F 29.68 in NW 8.0 mph 10.0 mph 84 % 0.00 in 19 W/m2
15:27 40.8 °F 36.4 °F 29.67 in North 14.0 mph 15.0 mph 84 % 0.00 in 12 W/m2
15:32 40.6 °F 36.2 °F 29.68 in NNW 8.0 mph 18.0 mph 84 % 0.00 in 11 W/m2
15:37 40.6 °F 36.2 °F 29.69 in NW 6.0 mph 16.0 mph 84 % 0.00 in 9 W/m2
15:42 40.5 °F 36.0 °F 29.69 in NW 8.0 mph 13.0 mph 84 % 0.00 in 7 W/m2
15:47 40.1 °F 35.7 °F 29.70 in NW 6.0 mph 11.0 mph 84 % 0.00 in 5 W/m2
15:48 40.1 °F 35.7 °F 29.70 in NW 7.0 mph 11.0 mph 84 % 0.00 in 5 W/m2
15:53 39.9 °F 35.8 °F 29.70 in NW 6.0 mph 11.0 mph 85 % 0.00 in 0 W/m2
15:58 39.7 °F 35.6 °F 29.70 in NNW 6.0 mph 11.0 mph 85 % 0.00 in 0 W/m2
16:03 39.7 °F 35.6 °F 29.70 in NW 9.0 mph 14.0 mph 85 % 0.00 in 0 W/m2
16:08 39.7 °F 35.6 °F 29.71 in NW 6.0 mph 11.0 mph 85 % 0.00 in 0 W/m2
16:13 39.6 °F 35.4 °F 29.71 in NW 7.0 mph 13.0 mph 85 % 0.00 in 0 W/m2
16:19 39.4 °F 35.2 °F 29.71 in NW 8.0 mph 15.0 mph 85 % 0.00 in 0 W/m2
16:24 39.2 °F 35.4 °F 29.71 in NW 7.0 mph 12.0 mph 86 % 0.00 in 0 W/m2
16:29 39.0 °F 35.2 °F 29.72 in NW 6.0 mph 13.0 mph 86 % 0.00 in 0 W/m2
16:34 38.8 °F 35.0 °F 29.72 in NW 7.0 mph 14.0 mph 86 % 0.00 in 0 W/m2
16:39 38.7 °F 34.8 °F 29.72 in NW 6.0 mph 10.0 mph 86 % 0.00 in 0 W/m2
16:44 38.7 °F 34.8 °F 29.73 in NW 6.0 mph 11.0 mph 86 % 0.00 in 0 W/m2
16:49 38.5 °F 34.7 °F 29.73 in NW 5.0 mph 10.0 mph 86 % 0.00 in 0 W/m2
16:54 38.3 °F 34.5 °F 29.74 in NW 7.0 mph 12.0 mph 86 % 0.00 in 0 W/m2
16:59 38.1 °F 34.3 °F 29.74 in NW 6.0 mph 12.0 mph 86 % 0.00 in 0 W/m2
17:04 38.1 °F 34.3 °F 29.74 in NW 6.0 mph 11.0 mph 86 % 0.00 in 0 W/m2
17:09 37.9 °F 34.1 °F 29.74 in NW 7.0 mph 15.0 mph 86 % 0.00 in 0 W/m2
17:14 37.9 °F 34.1 °F 29.74 in NW 8.0 mph 12.0 mph 86 % 0.00 in 0 W/m2
17:16 37.9 °F 34.1 °F 29.74 in NW 7.0 mph 9.0 mph 86 % 0.00 in 0 W/m2
17:21 37.9 °F 33.8 °F 29.75 in NW 7.0 mph 12.0 mph 85 % 0.00 in 0 W/m2
17:26 37.8 °F 33.7 °F 29.75 in NNW 5.0 mph 9.0 mph 85 % 0.00 in 0 W/m2
17:27 37.8 °F 33.7 °F 29.75 in NNW 5.0 mph 9.0 mph 85 % 0.00 in 0 W/m2
17:32 37.8 °F 33.7 °F 29.75 in NW 7.0 mph 14.0 mph 85 % 0.00 in 0 W/m2
17:37 37.8 °F 33.7 °F 29.75 in NW 6.0 mph 10.0 mph 85 % 0.00 in 0 W/m2
17:42 37.6 °F 33.5 °F 29.76 in NW 9.0 mph 15.0 mph 85 % 0.00 in 0 W/m2
17:47 37.6 °F 33.5 °F 29.76 in NW 9.0 mph 15.0 mph 85 % 0.00 in 0 W/m2
17:52 37.6 °F 33.5 °F 29.76 in NW 5.0 mph 8.0 mph 85 % 0.00 in 0 W/m2
17:57 37.4 °F 33.3 °F 29.76 in NW 4.0 mph 7.0 mph 85 % 0.00 in 0 W/m2
18:02 37.0 °F 32.9 °F 29.76 in WNW 5.0 mph 9.0 mph 85 % 0.00 in 0 W/m2
18:07 37.0 °F 32.9 °F 29.77 in NW 5.0 mph 8.0 mph 85 % 0.00 in 0 W/m2
18:12 36.9 °F 32.8 °F 29.77 in WNW 7.0 mph 13.0 mph 85 % 0.00 in 0 W/m2
18:17 36.7 °F 32.6 °F 29.77 in WNW 4.0 mph 10.0 mph 85 % 0.00 in 0 W/m2
18:22 36.7 °F 32.6 °F 29.78 in NW 6.0 mph 8.0 mph 85 % 0.00 in 0 W/m2
18:28 36.3 °F 32.5 °F 29.78 in WNW 5.0 mph 9.0 mph 86 % 0.00 in 0 W/m2
18:32 36.3 °F 32.5 °F 29.78 in WNW 5.0 mph 10.0 mph 86 % 0.00 in 0 W/m2
18:37 36.3 °F 32.5 °F 29.79 in WNW 5.0 mph 9.0 mph 86 % 0.00 in 0 W/m2
18:42 36.1 °F 32.4 °F 29.78 in WNW 4.0 mph 9.0 mph 86 % 0.00 in 0 W/m2
18:47 36.1 °F 32.4 °F 29.79 in NW 5.0 mph 9.0 mph 86 % 0.00 in 0 W/m2
18:52 36.0 °F 32.2 °F 29.79 in WNW 5.0 mph 9.0 mph 86 % 0.00 in 0 W/m2
18:57 36.0 °F 32.2 °F 29.79 in WNW 6.0 mph 10.0 mph 86 % 0.00 in 0 W/m2
19:02 36.0 °F 32.2 °F 29.79 in WNW 6.0 mph 11.0 mph 86 % 0.00 in 0 W/m2
19:08 36.0 °F 32.2 °F 29.80 in WNW 5.0 mph 8.0 mph 86 % 0.00 in 0 W/m2
19:13 36.0 °F 32.2 °F 29.80 in WNW 4.0 mph 7.0 mph 86 % 0.00 in 0 W/m2
19:18 35.8 °F 32.0 °F 29.81 in WNW 5.0 mph 8.0 mph 86 % 0.00 in 0 W/m2
19:23 35.8 °F 32.0 °F 29.80 in West 4.0 mph 7.0 mph 86 % 0.00 in 0 W/m2
19:28 35.6 °F 31.8 °F 29.81 in West 3.0 mph 6.0 mph 86 % 0.00 in 0 W/m2
19:33 35.4 °F 31.6 °F 29.81 in WNW 3.0 mph 6.0 mph 86 % 0.00 in 0 W/m2
19:38 35.2 °F 31.5 °F 29.82 in WNW 5.0 mph 8.0 mph 86 % 0.00 in 0 W/m2
19:43 35.2 °F 31.8 °F 29.81 in WNW 4.0 mph 6.0 mph 87 % 0.00 in 0 W/m2
19:48 35.1 °F 31.6 °F 29.82 in West 3.0 mph 6.0 mph 87 % 0.00 in 0 W/m2
19:53 34.9 °F 31.4 °F 29.82 in West 2.0 mph 5.0 mph 87 % 0.00 in 0 W/m2
19:58 34.5 °F 31.0 °F 29.82 in WNW 4.0 mph 6.0 mph 87 % 0.00 in 0 W/m2
20:03 34.3 °F 31.2 °F 29.82 in WNW 5.0 mph 7.0 mph 88 % 0.00 in 0 W/m2
20:08 34.3 °F 31.2 °F 29.82 in WNW 3.0 mph 6.0 mph 88 % 0.00 in 0 W/m2
20:13 34.2 °F 31.0 °F 29.82 in WNW 4.0 mph 7.0 mph 88 % 0.00 in 0 W/m2
20:18 34.2 °F 31.3 °F 29.82 in WNW 6.0 mph 9.0 mph 89 % 0.00 in 0 W/m2
20:23 34.2 °F 31.3 °F 29.82 in WNW 6.0 mph 10.0 mph 89 % 0.00 in 0 W/m2
20:28 34.3 °F 31.4 °F 29.82 in NW 9.0 mph 12.0 mph 89 % 0.00 in 0 W/m2
20:33 34.5 °F 31.6 °F 29.82 in WNW 7.0 mph 12.0 mph 89 % 0.00 in 0 W/m2
20:38 34.7 °F 31.8 °F 29.82 in NW 8.0 mph 13.0 mph 89 % 0.00 in 0 W/m2
20:43 34.9 °F 31.7 °F 29.83 in WNW 6.0 mph 10.0 mph 88 % 0.00 in 0 W/m2
20:48 34.9 °F 31.7 °F 29.83 in NW 9.0 mph 14.0 mph 88 % 0.00 in 0 W/m2
20:53 35.2 °F 31.8 °F 29.83 in NW 7.0 mph 11.0 mph 87 % 0.00 in 0 W/m2
20:58 35.2 °F 31.8 °F 29.83 in NW 5.0 mph 12.0 mph 87 % 0.00 in 0 W/m2
21:03 35.2 °F 31.5 °F 29.83 in WNW 6.0 mph 10.0 mph 86 % 0.00 in 0 W/m2
21:09 35.2 °F 31.5 °F 29.84 in WNW 6.0 mph 10.0 mph 86 % 0.00 in 0 W/m2
21:14 35.1 °F 31.3 °F 29.84 in WNW 4.0 mph 7.0 mph 86 % 0.00 in 0 W/m2
21:19 35.1 °F 31.3 °F 29.84 in WNW 6.0 mph 10.0 mph 86 % 0.00 in 0 W/m2
21:24 34.9 °F 31.1 °F 29.84 in WNW 6.0 mph 10.0 mph 86 % 0.00 in 0 W/m2
21:29 35.1 °F 31.6 °F 29.85 in WNW 6.0 mph 9.0 mph 87 % 0.00 in 0 W/m2
21:34 34.9 °F 31.4 °F 29.85 in WNW 7.0 mph 10.0 mph 87 % 0.00 in 0 W/m2
21:39 34.9 °F 31.4 °F 29.85 in WNW 6.0 mph 9.0 mph 87 % 0.00 in 0 W/m2
21:44 34.9 °F 31.4 °F 29.85 in WNW 6.0 mph 9.0 mph 87 % 0.00 in 0 W/m2
21:49 34.9 °F 31.4 °F 29.85 in WNW 6.0 mph 9.0 mph 87 % 0.00 in 0 W/m2
21:54 34.7 °F 31.2 °F 29.85 in WNW 7.0 mph 11.0 mph 87 % 0.00 in 0 W/m2
21:59 34.7 °F 31.2 °F 29.85 in WNW 7.0 mph 10.0 mph 87 % 0.00 in 0 W/m2
22:05 34.7 °F 31.2 °F 29.85 in WNW 8.0 mph 12.0 mph 87 % 0.00 in 0 W/m2
22:10 34.9 °F 31.4 °F 29.85 in WNW 7.0 mph 11.0 mph 87 % 0.00 in 0 W/m2
22:13 34.9 °F 31.4 °F 29.85 in WNW 8.0 mph 11.0 mph 87 % 0.00 in 0 W/m2
22:18 34.9 °F 31.4 °F 29.86 in WNW 6.0 mph 10.0 mph 87 % 0.00 in 0 W/m2
22:20 34.9 °F 31.1 °F 29.86 in WNW 7.0 mph 10.0 mph 86 % 0.00 in 0 W/m2
22:25 34.7 °F 30.9 °F 29.86 in WNW 7.0 mph 11.0 mph 86 % 0.00 in 0 W/m2
22:30 34.7 °F 30.9 °F 29.86 in WNW 7.0 mph 11.0 mph 86 % 0.00 in 0 W/m2
22:32 34.7 °F 30.9 °F 29.86 in WNW 7.0 mph 12.0 mph 86 % 0.00 in 0 W/m2
22:37 34.5 °F 30.8 °F 29.87 in WNW 6.0 mph 11.0 mph 86 % 0.00 in 0 W/m2
22:39 34.5 °F 30.8 °F 29.87 in WNW 6.0 mph 11.0 mph 86 % 0.00 in 0 W/m2
22:44 34.5 °F 30.8 °F 29.87 in WNW 5.0 mph 7.0 mph 86 % 0.00 in 0 W/m2
22:46 34.3 °F 30.6 °F 29.87 in WNW 6.0 mph 9.0 mph 86 % 0.00 in 0 W/m2
22:51 34.3 °F 30.6 °F 29.87 in WNW 6.0 mph 9.0 mph 86 % 0.00 in 0 W/m2
22:55 34.3 °F 30.6 °F 29.87 in WNW 6.0 mph 9.0 mph 86 % 0.00 in 0 W/m2
23:00 34.3 °F 30.9 °F 29.87 in WNW 6.0 mph 9.0 mph 87 % 0.00 in 0 W/m2
23:05 34.3 °F 30.9 °F 29.87 in WNW 6.0 mph 10.0 mph 87 % 0.00 in 0 W/m2
23:08 34.3 °F 30.9 °F 29.87 in WNW 7.0 mph 12.0 mph 87 % 0.00 in 0 W/m2
23:09 34.3 °F 30.9 °F 29.87 in WNW 7.0 mph 12.0 mph 87 % 0.00 in 0 W/m2
23:14 34.3 °F 30.6 °F 29.87 in WNW 7.0 mph 11.0 mph 86 % 0.00 in 0 W/m2
23:16 34.3 °F 30.6 °F 29.87 in WNW 7.0 mph 10.0 mph 86 % 0.00 in 0 W/m2
23:21 34.3 °F 30.6 °F 29.88 in WNW 6.0 mph 9.0 mph 86 % 0.00 in 0 W/m2
23:22 34.3 °F 30.6 °F 29.88 in WNW 6.0 mph 9.0 mph 86 % 0.00 in 0 W/m2
23:25 34.2 °F 30.4 °F 29.88 in WNW 5.0 mph 8.0 mph 86 % 0.00 in 0 W/m2
23:28 34.2 °F 30.4 °F 29.88 in WNW 6.0 mph 9.0 mph 86 % 0.00 in 0 W/m2
23:31 34.2 °F 30.4 °F 29.87 in WNW 6.0 mph 9.0 mph 86 % 0.00 in 0 W/m2
23:36 34.3 °F 30.6 °F 29.87 in WNW 6.0 mph 10.0 mph 86 % 0.00 in 0 W/m2
23:38 34.3 °F 30.6 °F 29.87 in WNW 5.0 mph 8.0 mph 86 % 0.00 in 0 W/m2
23:43 34.3 °F 30.6 °F 29.88 in WNW 6.0 mph 12.0 mph 86 % 0.00 in 0 W/m2
23:45 34.3 °F 30.6 °F 29.88 in WNW 7.0 mph 10.0 mph 86 % 0.00 in 0 W/m2
23:50 34.3 °F 30.6 °F 29.87 in WNW 6.0 mph 10.0 mph 86 % 0.00 in 0 W/m2
23:51 34.3 °F 30.6 °F 29.87 in WNW 7.0 mph 10.0 mph 86 % 0.00 in 0 W/m2
23:56 34.5 °F 30.5 °F 29.87 in WNW 7.0 mph 11.0 mph 85 % 0.00 in 0 W/m2
23:57 34.5 °F 30.5 °F 29.87 in WNW 7.0 mph 11.0 mph 85 % 0.00 in 0 W/m2
23:58 34.5 °F 30.5 °F 29.87 in WNW 7.0 mph 10.0 mph 85 % 0.00 in 0 W/m2
Delerius-Weather
Compliments of Weather Underground - 2.25 mb

Data updates at regular intervals.